Time;durP1;ratioP1;P1;durP2;ratioP2;P2;SDS_P1;SDS_P2;PMS_P1;PMS_P2;Temp;Humidity;BMP_temperature;BMP_pressure;BME280_temperature;BME280_humidity;BME280_pressure;Samples;Min_cycle;Max_cycle;Signal;HPM_P1;HPM_P2
2022/12/27 00:02:23;;;;;;;18.42;4.80;;;;;;;1.16;100.00;102028.13;10397202;28;20046;-82
2022/12/27 00:07:24;;;;;;;10.90;4.10;;;;;;;1.25;100.00;102043.63;10434975;28;20119;-82
2022/12/27 00:12:24;;;;;;;18.42;6.43;;;;;;;1.21;100.00;102046.63;10442508;28;20041;-82
2022/12/27 00:17:25;;;;;;;9.55;4.88;;;;;;;1.27;100.00;102049.84;10404909;28;20041;-82
2022/12/27 00:22:25;;;;;;;10.38;3.38;;;;;;;1.34;100.00;102056.59;10399724;28;20120;-82
2022/12/27 00:27:26;;;;;;;10.68;4.45;;;;;;;1.37;100.00;102060.38;10397958;28;20059;-82
2022/12/27 00:32:26;;;;;;;8.70;3.78;;;;;;;1.34;100.00;102054.91;10382398;28;20036;-82
2022/12/27 00:37:27;;;;;;;18.27;4.97;;;;;;;1.34;100.00;102043.69;10406177;28;20061;-82
2022/12/27 00:42:27;;;;;;;9.88;3.88;;;;;;;1.30;100.00;102047.59;10400329;28;20038;-82
2022/12/27 00:47:28;;;;;;;9.60;4.28;;;;;;;1.21;100.00;102052.72;10432535;28;20143;-82
2022/12/27 00:52:28;;;;;;;9.10;3.72;;;;;;;1.24;100.00;102070.16;10439634;28;20037;-82
2022/12/27 00:57:29;;;;;;;15.07;5.32;;;;;;;1.25;100.00;102065.19;10405960;28;20084;-83
2022/12/27 01:02:29;;;;;;;11.40;4.30;;;;;;;1.19;100.00;102073.94;10412012;28;20033;-82
2022/12/27 01:07:30;;;;;;;8.07;3.25;;;;;;;1.27;100.00;102067.91;10363822;28;20960;-82
2022/12/27 01:12:30;;;;;;;8.60;3.28;;;;;;;1.23;100.00;102083.81;10391431;28;20040;-82
2022/12/27 01:17:31;;;;;;;13.02;5.85;;;;;;;1.34;100.00;102088.44;10408210;28;20109;-82
2022/12/27 01:22:31;;;;;;;20.52;4.78;;;;;;;1.33;100.00;102099.50;10399857;28;20132;-83
2022/12/27 01:27:32;;;;;;;8.93;4.28;;;;;;;1.29;100.00;102099.94;10469389;28;20037;-83
2022/12/27 01:32:33;;;;;;;9.65;4.00;;;;;;;1.23;100.00;102102.81;10466472;28;20488;-83
2022/12/27 01:37:33;;;;;;;16.00;4.38;;;;;;;1.17;100.00;102110.78;10462088;28;20109;-83
2022/12/27 01:42:52;;;;;;;7.55;3.92;;;;;;;1.12;100.00;102114.56;10489325;28;20128;-83
2022/12/27 01:47:59;;;;;;;6.38;3.67;;;;;;;1.24;100.00;102124.34;10410902;28;20041;-82
2022/12/27 01:53:11;;;;;;;15.05;3.47;;;;;;;1.27;100.00;102124.66;10402686;28;20043;-82
2022/12/27 01:58:25;;;;;;;17.93;6.13;;;;;;;1.32;100.00;102131.22;10447819;28;20124;-82
2022/12/27 02:03:29;;;;;;;12.90;4.95;;;;;;;1.29;100.00;102138.63;10446107;28;20037;-82
2022/12/27 02:08:44;;;;;;;9.77;5.00;;;;;;;1.37;100.00;102132.63;10487638;28;20047;-82
2022/12/27 02:13:45;;;;;;;8.90;3.40;;;;;;;1.42;100.00;102135.69;10485617;28;20064;-82
2022/12/27 02:18:45;;;;;;;37.65;6.05;;;;;;;1.42;100.00;102146.00;10442064;28;20128;-82
2022/12/27 02:24:02;;;;;;;6.40;3.42;;;;;;;1.40;100.00;102151.00;10458520;28;20488;-83
2022/12/27 02:29:11;;;;;;;11.85;5.63;;;;;;;1.48;100.00;102150.88;10472138;28;20056;-82
2022/12/27 02:34:15;;;;;;;10.98;4.75;;;;;;;1.50;100.00;102154.53;10470699;28;20043;-82
2022/12/27 02:39:16;;;;;;;24.33;6.00;;;;;;;1.51;100.00;102158.94;10468446;28;20033;-82
2022/12/27 02:55:07;;;;;;;23.88;3.63;;;;;;;1.45;100.00;102160.13;10455875;28;20419;-82
2022/12/27 03:05:41;;;;;;;9.73;4.78;;;;;;;1.63;100.00;102156.75;10452782;28;20041;-82
2022/12/27 03:16:41;;;;;;;15.23;4.22;;;;;;;1.44;100.00;102147.97;10452515;28;20032;-82
2022/12/27 03:27:21;;;;;;;8.13;3.30;;;;;;;1.39;100.00;102168.91;10454676;28;20033;-83
2022/12/27 03:43:10;;;;;;;10.10;3.42;;;;;;;1.79;100.00;102172.16;10456906;28;20048;-83
2022/12/27 03:48:11;;;;;;;6.15;2.40;;;;;;;1.78;100.00;102185.81;10465190;28;20044;-83
2022/12/27 03:53:49;;;;;;;6.45;2.65;;;;;;;1.60;100.00;102189.22;10466321;28;20048;-83
2022/12/27 03:58:50;;;;;;;8.32;3.70;;;;;;;1.60;100.00;102190.88;10299584;28;20053;-84
2022/12/27 04:03:50;;;;;;;9.18;4.18;;;;;;;1.53;100.00;102203.88;10389579;28;20044;-84
2022/12/27 04:35:27;;;;;;;14.18;4.70;;;;;;;1.59;100.00;102184.81;10442993;28;20127;-83
2022/12/27 04:56:26;;;;;;;12.88;3.38;;;;;;;1.57;100.00;102181.16;10443781;28;20041;-84
2022/12/27 05:06:46;;;;;;;10.38;5.07;;;;;;;1.43;100.00;102196.88;10471156;28;20049;-82
2022/12/27 05:17:05;;;;;;;18.23;5.38;;;;;;;1.40;100.00;102204.28;10461503;28;20484;-84
2022/12/27 05:27:25;;;;;;;10.55;3.78;;;;;;;1.55;100.00;102231.69;10480791;28;20044;-84
2022/12/27 05:32:25;;;;;;;9.45;4.45;;;;;;;1.58;100.00;102229.44;10472465;28;20123;-84
2022/12/27 05:37:26;;;;;;;15.05;5.07;;;;;;;1.55;100.00;102233.34;10486781;28;20048;-84
2022/12/27 05:42:26;;;;;;;17.85;5.03;;;;;;;1.59;100.00;102223.53;10462385;28;20052;-84
2022/12/27 05:47:27;;;;;;;8.55;3.88;;;;;;;1.53;100.00;102243.53;10419017;28;20100;-84
2022/12/27 05:52:29;;;;;;;10.60;4.38;;;;;;;1.34;100.00;102252.63;10413639;28;20033;-81
2022/12/27 05:57:29;;;;;;;13.70;4.47;;;;;;;1.34;100.00;102256.13;10404826;28;20065;-81
2022/12/27 06:02:30;;;;;;;19.33;5.35;;;;;;;1.34;100.00;102262.97;10427393;28;20045;-87
2022/12/27 06:07:30;;;;;;;9.95;4.13;;;;;;;1.28;100.00;102258.97;10404326;28;20053;-86
2022/12/27 06:12:31;;;;;;;11.90;5.07;;;;;;;1.23;100.00;102266.94;10404687;28;20128;-85
2022/12/27 06:17:32;;;;;;;11.32;5.55;;;;;;;1.20;100.00;102275.28;10399791;28;20068;-82
2022/12/27 06:22:32;;;;;;;18.45;5.90;;;;;;;1.20;100.00;102271.78;10403871;28;20060;-81
2022/12/27 06:27:33;;;;;;;18.30;6.15;;;;;;;1.25;100.00;102275.75;10425414;28;20512;-81
2022/12/27 06:32:34;;;;;;;12.65;5.75;;;;;;;1.17;100.00;102280.13;10421080;28;20040;-81
2022/12/27 06:37:34;;;;;;;13.13;5.40;;;;;;;1.00;100.00;102278.25;10439219;28;20045;-81
2022/12/27 06:42:35;;;;;;;16.02;7.47;;;;;;;0.97;100.00;102275.34;10443814;28;20067;-82
2022/12/27 06:47:35;;;;;;;14.25;5.82;;;;;;;0.93;100.00;102275.78;10413892;28;20026;-82
2022/12/27 06:52:36;;;;;;;11.07;5.65;;;;;;;0.98;100.00;102280.69;10344764;28;20034;-82
2022/12/27 06:57:36;;;;;;;15.82;4.85;;;;;;;0.85;100.00;102286.16;10366129;28;20061;-81
2022/12/27 07:02:37;;;;;;;11.07;3.97;;;;;;;0.85;100.00;102286.16;10412036;28;20045;-82
2022/12/27 07:07:37;;;;;;;16.00;5.90;;;;;;;0.77;100.00;102293.81;10459196;28;20399;-82
2022/12/27 07:12:38;;;;;;;12.30;4.28;;;;;;;0.85;100.00;102301.63;10458946;28;20188;-83
2022/12/27 07:17:38;;;;;;;12.68;5.22;;;;;;;0.93;100.00;102314.44;10443259;28;20124;-81
2022/12/27 07:22:39;;;;;;;11.43;5.03;;;;;;;0.95;100.00;102312.94;10427980;28;20072;-82
2022/12/27 07:27:39;;;;;;;15.35;6.90;;;;;;;0.97;100.00;102326.91;10444290;28;20528;-84
2022/12/27 07:32:40;;;;;;;12.55;5.97;;;;;;;1.02;100.00;102330.91;10440425;28;20097;-81
2022/12/27 07:37:40;;;;;;;14.30;4.63;;;;;;;0.92;100.00;102344.47;10470016;28;20079;-81
2022/12/27 07:42:41;;;;;;;13.65;5.05;;;;;;;0.92;100.00;102340.97;10424023;28;20091;-81
2022/12/27 07:47:41;;;;;;;16.13;4.57;;;;;;;1.00;100.00;102343.66;10442567;28;20063;-80
2022/12/27 07:52:42;;;;;;;9.63;3.45;;;;;;;0.90;100.00;102337.31;10442189;28;20114;-81
2022/12/27 07:57:42;;;;;;;14.07;4.78;;;;;;;0.85;100.00;102350.59;10424063;28;20063;-84
2022/12/27 08:02:45;;;;;;;11.98;3.65;;;;;;;0.87;100.00;102353.38;10456540;28;20082;-81
2022/12/27 08:07:46;;;;;;;12.82;5.88;;;;;;;0.88;100.00;102361.25;10441529;28;20044;-79
2022/12/27 08:12:46;;;;;;;11.05;5.28;;;;;;;1.00;100.00;102358.19;10440620;28;20041;-81
2022/12/27 08:17:47;;;;;;;12.15;5.90;;;;;;;1.06;100.00;102351.13;10440048;28;20043;-78
2022/12/27 08:22:47;;;;;;;14.38;4.25;;;;;;;1.06;100.00;102358.88;10437026;28;20112;-82
2022/12/27 08:27:49;;;;;;;16.70;5.20;;;;;;;0.97;100.00;102357.84;10422784;28;20033;-83
2022/12/27 08:32:49;;;;;;;13.65;4.30;;;;;;;1.12;100.00;102364.69;10438409;28;20033;-81
2022/12/27 08:37:50;;;;;;;12.77;4.63;;;;;;;1.28;100.00;102369.91;10432802;28;20053;-83
2022/12/27 08:42:50;;;;;;;11.70;6.10;;;;;;;1.28;100.00;102368.97;10400102;28;20881;-83
2022/12/27 08:47:51;;;;;;;14.15;6.70;;;;;;;1.44;100.00;102371.56;10399874;28;20049;-83
2022/12/27 08:52:51;;;;;;;14.40;4.30;;;;;;;1.55;100.00;102381.38;10377765;28;20045;-82
2022/12/27 08:58:02;;;;;;;12.32;6.45;;;;;;;1.75;100.00;102380.03;10398346;28;20549;-83
2022/12/27 09:03:02;;;;;;;16.63;5.82;;;;;;;1.99;100.00;102383.41;10398353;28;20037;-81
2022/12/27 09:08:03;;;;;;;11.23;4.80;;;;;;;2.16;100.00;102380.97;10379883;28;20037;-85
2022/12/27 09:13:04;;;;;;;16.73;4.47;;;;;;;2.46;100.00;102368.50;10395045;28;20066;-83
2022/12/27 09:18:05;;;;;;;10.80;4.22;;;;;;;2.55;100.00;102360.81;10438638;28;20041;-84
2022/12/27 09:23:05;;;;;;;12.57;4.88;;;;;;;2.57;100.00;102357.59;10387759;28;20048;-81
2022/12/27 09:28:06;;;;;;;6.68;3.47;;;;;;;2.69;100.00;102368.31;10418575;28;20553;-82
2022/12/27 09:33:08;;;;;;;10.18;3.45;;;;;;;2.78;100.00;102370.94;10380615;28;20363;-83
2022/12/27 09:38:08;;;;;;;7.50;4.40;;;;;;;2.97;100.00;102378.94;10399004;28;20057;-81
2022/12/27 09:43:10;;;;;;;9.43;3.53;;;;;;;3.15;100.00;102381.56;10398704;28;20137;-83
2022/12/27 09:48:18;;;;;;;18.02;5.32;;;;;;;3.33;100.00;102380.84;10382242;28;20117;-85
2022/12/27 09:53:40;;;;;;;10.30;3.83;;;;;;;3.78;100.00;102371.44;10425707;28;20033;-88
2022/12/27 09:58:48;;;;;;;7.85;2.83;;;;;;;4.88;100.00;102369.03;10480327;28;20102;-82
2022/12/27 10:03:49;;;;;;;7.80;2.40;;;;;;;6.01;100.00;102336.94;10443312;28;20081;-83
2022/12/27 10:09:04;;;;;;;6.97;2.50;;;;;;;7.02;100.00;102330.06;10444601;28;20171;-85
2022/12/27 10:14:17;;;;;;;9.02;3.50;;;;;;;6.47;100.00;102332.31;10446160;28;20041;-86
2022/12/27 10:19:24;;;;;;;11.48;3.47;;;;;;;6.42;100.00;102326.69;10445500;28;20040;-80
2022/12/27 10:24:45;;;;;;;8.60;3.05;;;;;;;6.41;100.00;102311.88;10427599;28;20041;-83
2022/12/27 10:29:45;;;;;;;5.70;3.58;;;;;;;7.34;100.00;102311.94;10444071;28;20037;-86
2022/12/27 10:34:55;;;;;;;6.28;2.70;;;;;;;8.48;100.00;102314.19;10444048;28;20037;-84
2022/12/27 10:39:59;;;;;;;6.28;2.05;;;;;;;8.56;100.00;102298.25;10428268;28;20033;-88
2022/12/27 10:45:28;;;;;;;5.25;2.17;;;;;;;7.55;100.00;102298.00;10427970;28;20033;-85
2022/12/27 10:50:28;;;;;;;5.30;1.90;;;;;;;7.67;100.00;102313.72;10442938;28;20029;-87
2022/12/27 10:55:33;;;;;;;5.65;2.58;;;;;;;8.34;100.00;102304.34;10443746;28;20115;-88
2022/12/27 11:00:34;;;;;;;3.33;1.52;;;;;;;8.57;100.00;102316.66;10443194;28;20405;-87
2022/12/27 11:05:35;;;;;;;8.25;3.22;;;;;;;7.45;100.00;102314.53;10442238;28;20025;-87
2022/12/27 11:10:36;;;;;;;6.90;2.17;;;;;;;6.92;100.00;102312.75;10444929;28;20132;-86
2022/12/27 11:15:37;;;;;;;9.00;2.58;;;;;;;6.87;100.00;102309.75;10405657;28;20037;-86
2022/12/27 11:20:39;;;;;;;4.73;1.77;;;;;;;6.60;100.00;102305.66;10386555;28;20041;-84
2022/12/27 11:25:56;;;;;;;11.50;2.13;;;;;;;6.26;100.00;102310.50;10390271;28;20108;-83
2022/12/27 11:30:59;;;;;;;5.90;2.15;;;;;;;6.09;100.00;102315.13;10409526;28;20103;-84
2022/12/27 11:36:00;;;;;;;5.95;2.97;;;;;;;6.09;100.00;102307.34;10447411;28;20124;-85
2022/12/27 11:41:02;;;;;;;24.35;10.90;;;;;;;6.09;100.00;102306.44;10461318;28;20050;-84
2022/12/27 11:46:04;;;;;;;9.60;3.47;;;;;;;6.14;100.00;102306.06;10477531;28;20053;-80
2022/12/27 11:51:29;;;;;;;4.10;1.92;;;;;;;6.17;100.00;102303.72;10444093;28;20408;-82
2022/12/27 11:56:36;;;;;;;8.07;2.28;;;;;;;6.36;100.00;102299.25;10443968;28;20389;-82
2022/12/27 12:01:45;;;;;;;5.97;1.75;;;;;;;6.41;100.00;102300.56;10465175;28;20406;-83
2022/12/27 12:07:11;;;;;;;9.88;2.22;;;;;;;6.43;100.00;102289.50;10455862;28;20127;-82
2022/12/27 12:12:30;;;;;;;7.20;2.25;;;;;;;6.44;100.00;102272.22;10393086;28;20127;-83
2022/12/27 12:17:39;;;;;;;10.10;1.90;;;;;;;6.35;100.00;102269.72;10376871;28;20041;-83
2022/12/27 12:23:24;;;;;;;4.57;2.28;;;;;;;6.22;100.00;102270.34;10361411;28;20048;-81
2022/12/27 12:28:49;;;;;;;12.80;2.92;;;;;;;6.25;100.00;102267.09;10334239;28;20053;-81
2022/12/27 12:33:52;;;;;;;5.05;1.83;;;;;;;6.25;100.00;102247.22;10379329;28;20041;-80
2022/12/27 12:39:34;;;;;;;9.98;2.70;;;;;;;6.20;100.00;102260.56;10398685;28;20048;-83
2022/12/27 12:44:37;;;;;;;5.80;2.60;;;;;;;6.09;100.00;102251.84;10365768;28;20157;-82
2022/12/27 12:49:55;;;;;;;4.55;2.08;;;;;;;6.06;100.00;102247.28;10347435;28;20071;-81
2022/12/27 12:55:10;;;;;;;14.07;2.92;;;;;;;5.96;100.00;102250.72;10363562;28;20100;-82
2022/12/27 13:00:29;;;;;;;12.43;3.55;;;;;;;6.00;100.00;102233.72;10364098;28;20034;-82
2022/12/27 13:05:50;;;;;;;11.40;3.53;;;;;;;5.99;100.00;102224.09;10426860;28;20053;-82
2022/12/27 13:11:04;;;;;;;9.63;2.45;;;;;;;5.95;100.00;102225.53;10438991;28;20500;-83
2022/12/27 13:16:11;;;;;;;9.85;3.05;;;;;;;6.01;100.00;102215.69;10431412;28;20497;-81
2022/12/27 13:21:41;;;;;;;4.22;2.05;;;;;;;6.09;100.00;102212.84;10409456;28;20033;-83
2022/12/27 13:26:54;;;;;;;5.68;2.85;;;;;;;6.13;100.00;102196.75;10398112;28;20470;-82
2022/12/27 13:32:13;;;;;;;8.07;2.78;;;;;;;6.14;100.00;102186.47;10382233;28;20041;-82
2022/12/27 13:37:20;;;;;;;9.32;3.58;;;;;;;5.98;100.00;102181.59;10437417;28;20041;-82
2022/12/27 13:42:24;;;;;;;8.50;3.20;;;;;;;5.91;100.00;102171.47;10443903;28;20037;-84
2022/12/27 13:47:36;;;;;;;5.97;3.03;;;;;;;5.98;100.00;102171.22;10441231;28;20047;-82
2022/12/27 13:52:54;;;;;;;5.63;2.90;;;;;;;6.08;100.00;102157.34;10431254;28;20404;-84
2022/12/27 13:58:19;;;;;;;9.52;3.33;;;;;;;6.09;100.00;102148.78;10437059;28;20048;-81
2022/12/27 14:03:46;;;;;;;10.50;3.42;;;;;;;5.98;100.00;102146.91;10461021;28;20440;-79
2022/12/27 14:09:04;;;;;;;7.00;2.35;;;;;;;5.91;100.00;102160.13;10429320;28;20482;-79
2022/12/27 14:14:05;;;;;;;12.30;3.08;;;;;;;5.87;100.00;102141.69;10448928;28;20052;-78
2022/12/27 14:19:11;;;;;;;8.25;3.20;;;;;;;5.78;100.00;102146.06;10451917;28;20045;-78
2022/12/27 14:24:33;;;;;;;7.15;2.33;;;;;;;5.80;100.00;102138.44;10427824;28;20045;-79
2022/12/27 14:29:39;;;;;;;13.60;3.75;;;;;;;5.90;100.00;102127.13;10436958;28;20061;-78
2022/12/27 14:35:00;;;;;;;10.95;3.67;;;;;;;5.87;100.00;102127.78;10425158;28;20176;-81
2022/12/27 14:40:37;;;;;;;5.20;2.03;;;;;;;5.78;100.00;102120.09;10395712;28;20517;-81
2022/12/27 14:45:50;;;;;;;9.05;2.58;;;;;;;5.55;100.00;102124.19;10369405;28;20136;-80
2022/12/27 14:51:09;;;;;;;9.48;2.97;;;;;;;5.38;100.00;102132.16;10439415;28;20052;-80
2022/12/27 14:56:18;;;;;;;8.23;2.78;;;;;;;5.38;100.00;102132.16;10452622;28;20044;-80
2022/12/27 15:01:30;;;;;;;11.32;4.32;;;;;;;5.15;100.00;102125.81;10446106;28;20048;-78
2022/12/27 15:06:40;;;;;;;9.50;3.03;;;;;;;5.06;100.00;102118.13;10443075;28;20041;-79
2022/12/27 15:12:01;;;;;;;10.05;2.78;;;;;;;4.90;100.00;102113.22;10436326;28;20106;-79
2022/12/27 15:17:20;;;;;;;10.13;2.60;;;;;;;4.92;100.00;102111.69;10424521;28;20040;-81
2022/12/27 15:22:25;;;;;;;8.52;3.08;;;;;;;4.91;100.00;102102.09;10452083;28;20501;-80
2022/12/27 15:27:34;;;;;;;8.88;2.35;;;;;;;4.89;100.00;102098.44;10442745;28;20041;-80
2022/12/27 15:32:48;;;;;;;5.53;2.92;;;;;;;4.98;100.00;102090.59;10417423;28;20077;-80
2022/12/27 15:37:54;;;;;;;10.98;2.97;;;;;;;4.96;100.00;102099.91;10437442;28;20124;-78
2022/12/27 15:43:25;;;;;;;7.32;2.63;;;;;;;4.88;100.00;102100.91;10431387;28;20078;-82
2022/12/27 15:49:00;;;;;;;14.55;4.60;;;;;;;4.84;100.00;102102.31;10482625;28;20374;-83
2022/12/27 15:54:34;;;;;;;13.98;4.53;;;;;;;4.80;100.00;102098.53;10418769;28;20038;-82
2022/12/27 15:59:39;;;;;;;7.47;2.97;;;;;;;4.54;100.00;102106.50;10410447;28;20124;-80
2022/12/27 16:05:01;;;;;;;11.55;3.13;;;;;;;4.50;100.00;102101.81;10386760;28;20041;-78
2022/12/27 16:10:29;;;;;;;10.55;2.70;;;;;;;4.67;100.00;102104.28;10406191;28;20045;-78
2022/12/27 16:15:49;;;;;;;5.35;2.88;;;;;;;4.59;100.00;102097.47;10364422;28;20045;-78
2022/12/27 16:20:59;;;;;;;13.27;3.67;;;;;;;4.52;100.00;102097.69;10453195;28;20095;-79
2022/12/27 16:26:18;;;;;;;7.15;2.58;;;;;;;4.51;100.00;102099.38;10428108;28;20087;-79
2022/12/27 16:31:32;;;;;;;10.23;2.85;;;;;;;4.37;100.00;102112.75;10436886;28;20095;-80
2022/12/27 16:36:33;;;;;;;7.60;2.47;;;;;;;4.36;100.00;102104.03;10456538;28;20131;-80
2022/12/27 16:41:47;;;;;;;6.63;2.85;;;;;;;4.00;100.00;102106.72;10415805;28;20038;-81
2022/12/27 16:46:53;;;;;;;9.60;2.88;;;;;;;3.98;100.00;102096.19;10464944;28;20452;-83
2022/12/27 16:52:16;;;;;;;11.52;3.95;;;;;;;3.79;100.00;102099.63;10462529;28;20554;-82
2022/12/27 16:57:25;;;;;;;14.68;5.20;;;;;;;3.79;100.00;102094.47;10461192;28;20049;-82
2022/12/27 17:02:39;;;;;;;11.95;5.30;;;;;;;3.82;100.00;102081.81;10475458;28;20051;-83
2022/12/27 17:07:51;;;;;;;9.45;4.22;;;;;;;3.97;100.00;102071.06;10491226;28;20063;-83
2022/12/27 17:13:01;;;;;;;11.85;3.00;;;;;;;4.00;100.00;102062.69;10451729;28;20041;-81
2022/12/27 17:18:21;;;;;;;12.80;5.00;;;;;;;3.91;100.00;102070.47;10435642;28;20148;-83
2022/12/27 17:23:21;;;;;;;9.50;4.18;;;;;;;3.88;100.00;102070.19;10439503;28;20071;-82
2022/12/27 17:28:25;;;;;;;10.90;4.10;;;;;;;4.00;100.00;102070.44;10402260;28;20128;-86
2022/12/27 17:33:41;;;;;;;13.70;5.30;;;;;;;3.95;100.00;102062.22;10430719;28;20488;-82
2022/12/27 17:38:56;;;;;;;11.25;3.33;;;;;;;3.98;100.00;102059.94;10480244;28;20047;-87
2022/12/27 17:49:26;;;;;;;8.60;3.65;;;;;;;3.96;100.00;102045.91;10434775;28;20044;-85
2022/12/27 17:59:48;;;;;;;22.42;4.80;;;;;;;3.88;100.00;102029.69;10476388;28;20095;-84
2022/12/27 18:04:49;;;;;;;;;;;;;;;3.90;100.00;102030.72;10456011;28;20033;-86
2022/12/27 18:09:51;;;;;;;11.30;3.25;;;;;;;3.77;100.00;102036.44;10444631;28;20391;-84
2022/12/27 18:15:09;;;;;;;18.23;3.63;;;;;;;3.84;100.00;102031.81;10424954;28;20068;-87
2022/12/27 18:20:25;;;;;;;17.27;3.60;;;;;;;3.71;100.00;102020.31;10404704;28;20041;-82
2022/12/27 18:25:29;;;;;;;14.00;4.38;;;;;;;3.57;100.00;102016.44;10487039;28;20129;-82
2022/12/27 18:30:34;;;;;;;7.03;3.47;;;;;;;3.59;100.00;102025.28;10487686;28;20488;-84
2022/12/27 18:35:35;;;;;;;9.13;4.60;;;;;;;3.62;100.00;102022.97;10474237;28;20103;-88
2022/12/27 18:40:36;;;;;;;8.88;4.53;;;;;;;3.56;100.00;102012.03;10467402;28;20138;-85
2022/12/27 18:45:36;;;;;;;11.43;4.45;;;;;;;3.55;100.00;101998.94;10446735;28;20037;-89
2022/12/27 18:50:37;;;;;;;7.15;3.63;;;;;;;3.57;100.00;101992.22;10444467;28;20037;-86
2022/12/27 18:55:37;;;;;;;9.88;4.75;;;;;;;3.63;100.00;101985.03;10466052;28;20481;-86
2022/12/27 19:01:04;;;;;;;7.53;3.10;;;;;;;3.41;100.00;101987.28;10468376;28;20033;-84
2022/12/27 19:06:11;;;;;;;10.43;3.22;;;;;;;3.35;100.00;101980.78;10410087;28;20037;-87
2022/12/27 19:11:25;;;;;;;5.97;3.20;;;;;;;3.34;100.00;101971.19;10401891;28;20507;-87
2022/12/27 19:16:30;;;;;;;6.25;2.65;;;;;;;3.28;100.00;101965.44;10451390;28;20089;-90
2022/12/27 19:21:35;;;;;;;9.85;3.70;;;;;;;3.22;100.00;101952.81;10483973;28;20036;-88
2022/12/27 19:26:35;;;;;;;10.00;3.25;;;;;;;3.24;100.00;101950.38;10448156;28;20020;-83
2022/12/27 19:31:36;;;;;;;8.43;4.65;;;;;;;3.29;100.00;101943.03;10452168;28;20041;-82
2022/12/27 19:36:38;;;;;;;6.18;3.50;;;;;;;3.18;100.00;101942.03;10456318;28;20487;-83
2022/12/27 19:41:38;;;;;;;13.33;5.63;;;;;;;3.18;100.00;101935.16;10480297;28;20065;-85
2022/12/27 19:46:39;;;;;;;10.70;4.28;;;;;;;3.20;100.00;101931.06;10475988;28;20124;-84
2022/12/27 19:51:40;;;;;;;5.68;2.97;;;;;;;3.12;100.00;101919.06;10427123;28;20047;-84
2022/12/27 19:56:40;;;;;;;8.40;4.07;;;;;;;3.06;100.00;101915.91;10484160;28;20052;-84
2022/12/27 20:01:41;;;;;;;12.95;5.95;;;;;;;3.10;100.00;101899.91;10465832;28;20494;-84
2022/12/27 20:06:42;;;;;;;8.32;4.07;;;;;;;3.05;100.00;101903.72;10425918;28;20039;-84
2022/12/27 20:11:42;;;;;;;7.45;2.95;;;;;;;3.18;100.00;101892.88;10459274;28;20082;-84
2022/12/27 20:16:44;;;;;;;6.90;2.90;;;;;;;3.02;100.00;101880.16;10441241;28;20040;-83
2022/12/27 20:21:44;;;;;;;5.87;3.20;;;;;;;2.98;100.00;101876.38;10443337;28;20071;-84
2022/12/27 20:26:45;;;;;;;6.65;3.10;;;;;;;2.96;100.00;101870.16;10452626;28;20819;-84
2022/12/27 20:31:47;;;;;;;8.32;4.32;;;;;;;2.99;100.00;101870.44;10441956;28;20076;-85
2022/12/27 20:36:48;;;;;;;10.57;4.10;;;;;;;3.19;100.00;101855.88;10479500;28;20098;-86
2022/12/27 20:41:48;;;;;;;7.45;4.03;;;;;;;3.05;100.00;101859.75;10481238;28;20064;-85
2022/12/27 20:46:49;;;;;;;9.40;3.83;;;;;;;3.06;100.00;101862.50;10440160;28;20106;-85
2022/12/27 20:51:50;;;;;;;13.18;3.70;;;;;;;3.37;100.00;101854.09;10473907;28;20041;-85
2022/12/27 20:56:50;;;;;;;8.18;3.70;;;;;;;3.44;100.00;101838.34;10462165;28;20076;-85
2022/12/27 21:01:51;;;;;;;13.07;4.18;;;;;;;3.52;100.00;101839.97;10471638;28;20519;-88
2022/12/27 21:06:52;;;;;;;11.07;4.55;;;;;;;3.48;100.00;101824.94;10460333;28;20127;-82
2022/12/27 21:11:52;;;;;;;9.88;3.40;;;;;;;3.51;100.00;101822.63;10454783;28;20064;-80
2022/12/27 21:16:53;;;;;;;11.48;4.88;;;;;;;3.50;100.00;101817.31;10481946;28;20086;-84
2022/12/27 21:21:53;;;;;;;10.60;5.68;;;;;;;3.45;100.00;101800.47;10481000;28;20064;-83
2022/12/27 21:26:54;;;;;;;8.88;4.43;;;;;;;3.35;100.00;101797.03;10482355;28;20032;-88
2022/12/27 21:31:54;;;;;;;6.28;3.67;;;;;;;3.41;100.00;101791.50;10450410;28;20059;-87
2022/12/27 21:36:55;;;;;;;7.10;3.90;;;;;;;3.41;100.00;101791.50;10451789;28;20045;-82
2022/12/27 21:41:55;;;;;;;11.57;3.35;;;;;;;3.43;100.00;101786.47;10400050;28;20076;-89
2022/12/27 21:46:56;;;;;;;7.57;3.47;;;;;;;3.49;100.00;101781.84;10404925;28;20119;-87
2022/12/27 21:51:56;;;;;;;10.82;4.25;;;;;;;3.44;100.00;101773.66;10413418;28;20491;-89
2022/12/27 21:56:57;;;;;;;7.13;2.85;;;;;;;3.44;100.00;101771.06;10428061;28;20033;-89
2022/12/27 22:01:57;;;;;;;6.35;3.58;;;;;;;3.56;100.00;101737.63;10436502;28;20038;-89
2022/12/27 22:06:58;;;;;;;8.18;3.58;;;;;;;3.64;100.00;101730.53;10365840;28;20048;-89
2022/12/27 22:11:58;;;;;;;11.65;4.20;;;;;;;3.69;100.00;101705.06;10399142;28;20060;-85
2022/12/27 22:17:00;;;;;;;9.95;4.07;;;;;;;3.82;100.00;101701.09;10419206;28;20050;-90
2022/12/27 22:22:01;;;;;;;10.93;5.10;;;;;;;3.85;100.00;101704.72;10415157;28;20071;-90
2022/12/27 22:27:01;;;;;;;12.60;6.20;;;;;;;3.82;100.00;101705.38;10404078;28;20096;-91
2022/12/27 22:32:02;;;;;;;10.43;4.45;;;;;;;3.87;100.00;101691.16;10405531;28;20124;-88
2022/12/27 22:37:03;;;;;;;15.82;4.72;;;;;;;3.82;100.00;101690.75;10403285;28;20455;-88
2022/12/27 22:42:04;;;;;;;7.10;3.17;;;;;;;3.97;100.00;101680.84;10403432;28;20042;-89
2022/12/27 22:47:04;;;;;;;7.45;3.47;;;;;;;4.13;100.00;101665.69;10403768;28;20466;-88
2022/12/27 22:52:05;;;;;;;6.75;3.08;;;;;;;4.19;100.00;101656.78;10406449;28;20486;-88
2022/12/27 22:57:05;;;;;;;15.45;4.95;;;;;;;4.19;100.00;101653.28;10407884;28;20051;-88
2022/12/27 23:02:06;;;;;;;6.88;3.05;;;;;;;4.18;100.00;101649.78;10440968;28;20396;-90
2022/12/27 23:07:06;;;;;;;6.93;2.85;;;;;;;4.22;100.00;101633.72;10477211;28;20043;-89
2022/12/27 23:12:07;;;;;;;8.27;2.67;;;;;;;4.18;100.00;101625.53;10477281;28;20379;-89
2022/12/27 23:17:07;;;;;;;15.00;4.85;;;;;;;4.25;100.00;101621.03;10447217;28;20041;-89
2022/12/27 23:22:08;;;;;;;10.95;3.55;;;;;;;4.32;100.00;101617.25;10425366;28;20124;-90
2022/12/27 23:27:08;;;;;;;11.48;4.57;;;;;;;4.47;100.00;101611.56;10448906;28;20072;-89
2022/12/27 23:32:09;;;;;;;11.02;3.38;;;;;;;4.60;100.00;101591.06;10477279;28;20493;-90
2022/12/27 23:37:09;;;;;;;6.00;3.13;;;;;;;4.58;100.00;101597.81;10462273;28;20107;-89
2022/12/27 23:42:10;;;;;;;6.25;2.97;;;;;;;4.55;100.00;101590.69;10440462;28;20105;-89
2022/12/27 23:47:11;;;;;;;9.50;4.07;;;;;;;4.61;100.00;101566.94;10454054;28;20049;-90
2022/12/27 23:52:11;;;;;;;7.90;3.00;;;;;;;4.55;100.00;101566.44;10493808;28;20064;-93
2022/12/27 23:57:12;;;;;;;9.18;3.97;;;;;;;4.70;100.00;101548.66;10451479;28;20132;-89
